createdAt,value
2023-04-09T00:01:51.357Z,9.00
2023-04-09T00:04:23.937Z,8.80
2023-04-09T00:06:54.997Z,7.70
2023-04-09T00:09:26.043Z,9.10
2023-04-09T00:11:58.803Z,8.80
2023-04-09T00:14:30.000Z,9.50
2023-04-09T00:17:01.213Z,9.00
2023-04-09T00:19:33.406Z,8.50
2023-04-09T00:22:04.959Z,8.40
2023-04-09T00:24:35.904Z,8.90
2023-04-09T00:27:06.984Z,9.80
2023-04-09T00:29:38.003Z,8.90
2023-04-09T00:32:09.733Z,9.20
2023-04-09T00:34:40.963Z,8.90
2023-04-09T00:37:12.038Z,9.40
2023-04-09T00:39:43.220Z,9.00
2023-04-09T00:42:14.287Z,9.60
2023-04-09T00:44:45.280Z,8.90
2023-04-09T00:47:16.372Z,8.70
2023-04-09T00:49:47.499Z,9.40
2023-04-09T00:52:18.538Z,8.70
2023-04-09T00:54:50.083Z,8.60
2023-04-09T00:57:21.836Z,8.80
2023-04-09T00:59:53.465Z,9.60
2023-04-09T01:02:24.721Z,9.50
2023-04-09T01:04:55.912Z,8.10
2023-04-09T01:07:38.283Z,9.00
2023-04-09T01:10:18.441Z,8.10
2023-04-09T01:13:05.893Z,9.50
2023-04-09T01:15:42.377Z,8.10
2023-04-09T01:18:20.567Z,9.50
2023-04-09T01:20:58.714Z,9.20
2023-04-09T01:23:38.732Z,9.00
2023-04-09T01:26:22.758Z,9.00
2023-04-09T01:28:59.491Z,9.10
2023-04-09T01:31:33.143Z,9.70
2023-04-09T01:34:06.378Z,9.60
2023-04-09T01:36:41.208Z,9.30
2023-04-09T01:39:12.713Z,9.00
2023-04-09T01:41:44.422Z,8.80
2023-04-09T01:44:16.302Z,9.30
2023-04-09T01:46:50.392Z,10.00
2023-04-09T01:49:21.962Z,9.90
2023-04-09T01:51:53.197Z,9.20
2023-04-09T01:54:24.214Z,9.60
2023-04-09T01:56:55.234Z,10.50
2023-04-09T01:59:26.215Z,9.20
2023-04-09T02:02:01.329Z,10.50
2023-04-09T02:07:11.428Z,9.30
2023-04-09T02:09:44.481Z,9.00
2023-04-09T02:15:52.180Z,9.90
2023-04-09T02:18:28.708Z,9.50
2023-04-09T02:21:00.848Z,9.80
2023-04-09T02:23:33.706Z,11.20
2023-04-09T02:26:04.714Z,10.30
2023-04-09T02:28:35.877Z,9.90
2023-04-09T02:31:07.335Z,10.50
2023-04-09T02:33:38.341Z,9.90
2023-04-09T02:36:16.429Z,10.00
2023-04-09T02:39:01.371Z,9.80
2023-04-09T02:41:32.624Z,10.70
2023-04-09T02:44:06.922Z,10.00
2023-04-09T02:46:39.447Z,10.00
2023-04-09T02:52:07.440Z,10.60
2023-04-09T02:54:38.819Z,10.10
2023-04-09T03:01:21.558Z,9.10
2023-04-09T03:03:53.030Z,9.50
2023-04-09T03:06:26.762Z,9.50
2023-04-09T03:08:57.736Z,10.60
2023-04-09T03:11:28.788Z,9.40
2023-04-09T03:13:59.818Z,9.70
2023-04-09T03:16:31.432Z,9.70
2023-04-09T03:19:11.455Z,10.40
2023-04-09T03:21:42.523Z,9.90
2023-04-09T03:24:13.812Z,9.50
2023-04-09T03:26:45.217Z,9.30
2023-04-09T03:29:16.407Z,9.30
2023-04-09T03:31:47.652Z,9.60
2023-04-09T03:34:19.346Z,9.50
2023-04-09T03:36:53.543Z,9.80
2023-04-09T03:39:31.510Z,8.90
2023-04-09T03:42:02.523Z,9.50
2023-04-09T03:44:37.305Z,10.40
2023-04-09T03:47:14.139Z,10.00
2023-04-09T03:49:45.136Z,10.00
2023-04-09T03:52:25.691Z,9.30
2023-04-09T03:55:04.070Z,9.30
2023-04-09T03:57:35.701Z,9.10
2023-04-09T04:00:09.624Z,9.50
2023-04-09T04:02:54.650Z,9.20
2023-04-09T04:05:45.041Z,9.30
2023-04-09T04:08:20.376Z,8.40
2023-04-09T04:10:51.751Z,9.90
2023-04-09T04:13:22.981Z,10.50
2023-04-09T04:15:59.417Z,11.20
2023-04-09T04:18:32.853Z,10.40
2023-04-09T04:21:03.836Z,10.30
2023-04-09T04:23:36.783Z,10.10
2023-04-09T04:26:19.569Z,11.50
2023-04-09T04:28:51.288Z,9.30
2023-04-09T04:31:32.537Z,9.00
2023-04-09T04:34:03.767Z,10.50
2023-04-09T04:36:34.725Z,10.60
2023-04-09T04:39:05.701Z,9.00
2023-04-09T04:41:45.928Z,10.20
2023-04-09T04:44:20.110Z,10.70
2023-04-09T04:46:51.612Z,10.00
2023-04-09T04:49:22.642Z,10.70
2023-04-09T04:51:53.620Z,9.50
2023-04-09T04:54:24.695Z,9.20
2023-04-09T04:56:58.643Z,8.90
2023-04-09T04:59:41.724Z,9.00
2023-04-09T05:02:14.702Z,10.10
2023-04-09T05:04:53.848Z,9.40
2023-04-09T05:07:28.065Z,8.90
2023-04-09T05:10:01.901Z,9.30
2023-04-09T05:12:36.863Z,9.70
2023-04-09T05:15:09.873Z,9.60
2023-04-09T05:17:45.663Z,11.00
2023-04-09T05:22:55.013Z,9.10
2023-04-09T05:25:31.667Z,8.90
2023-04-09T05:28:03.112Z,13.50
2023-04-09T05:30:34.824Z,16.50
2023-04-09T05:33:06.984Z,11.20
2023-04-09T05:35:41.410Z,10.10
2023-04-09T05:38:13.939Z,10.60
2023-04-09T05:40:46.151Z,9.90
2023-04-09T05:43:17.315Z,12.10
2023-04-09T05:45:48.347Z,13.50
2023-04-09T05:48:19.886Z,14.70
2023-04-09T05:50:55.481Z,10.80
2023-04-09T05:53:28.268Z,10.30
2023-04-09T05:55:59.198Z,9.80
2023-04-09T05:58:32.677Z,10.20
2023-04-09T06:01:03.718Z,10.50
2023-04-09T06:03:34.792Z,9.70
2023-04-09T06:06:06.295Z,9.90
2023-04-09T06:08:38.506Z,10.80
2023-04-09T06:11:13.417Z,9.50
2023-04-09T06:13:44.380Z,10.70
2023-04-09T06:16:16.228Z,9.70
2023-04-09T06:18:49.794Z,11.20
2023-04-09T06:21:20.825Z,11.80
2023-04-09T06:23:53.969Z,10.70
2023-04-09T06:26:27.796Z,10.60
2023-04-09T06:28:58.843Z,11.60
2023-04-09T06:31:31.874Z,11.10
2023-04-09T06:34:03.048Z,9.90
2023-04-09T06:36:40.515Z,10.80
2023-04-09T06:39:11.532Z,10.00
2023-04-09T06:41:42.587Z,11.50
2023-04-09T06:44:26.966Z,9.80
2023-04-09T06:46:58.173Z,11.30
2023-04-09T06:49:29.199Z,12.30
2023-04-09T06:52:00.574Z,12.60
2023-04-09T06:54:31.714Z,10.40
2023-04-09T06:57:02.790Z,9.80
2023-04-09T06:59:34.003Z,11.30
2023-04-09T07:02:05.131Z,11.50
2023-04-09T07:04:36.311Z,11.30
2023-04-09T07:07:07.454Z,12.20
2023-04-09T07:09:38.486Z,12.00
2023-04-09T07:12:09.490Z,12.50
2023-04-09T07:14:40.483Z,11.60
2023-04-09T07:17:11.400Z,12.00
2023-04-09T07:19:42.472Z,11.60
2023-04-09T07:22:13.457Z,11.60
2023-04-09T07:24:44.633Z,11.00
2023-04-09T07:27:15.700Z,11.50
2023-04-09T07:29:48.391Z,10.40
2023-04-09T07:32:19.654Z,9.80
2023-04-09T07:34:52.213Z,10.90
2023-04-09T07:37:23.552Z,9.50
2023-04-09T07:39:54.921Z,10.20
2023-04-09T07:42:27.424Z,9.80
2023-04-09T07:44:58.689Z,10.10
2023-04-09T07:47:30.147Z,10.50
2023-04-09T07:50:01.468Z,10.40
2023-04-09T07:52:32.510Z,10.50
2023-04-09T07:55:03.618Z,10.20
2023-04-09T07:57:35.393Z,10.40
2023-04-09T08:00:08.434Z,10.20
2023-04-09T08:02:48.804Z,11.20
2023-04-09T08:05:20.308Z,10.80
2023-04-09T08:07:52.082Z,10.30
2023-04-09T08:10:23.325Z,10.90
2023-04-09T08:12:54.626Z,9.60
2023-04-09T08:15:25.716Z,9.70
2023-04-09T08:17:57.070Z,9.50
2023-04-09T08:20:29.546Z,10.60
2023-04-09T08:23:00.680Z,10.00
2023-04-09T08:25:31.618Z,10.10
2023-04-09T08:28:02.693Z,11.00
2023-04-09T08:30:34.526Z,9.90
2023-04-09T08:33:06.361Z,10.20
2023-04-09T08:35:38.464Z,10.90
2023-04-09T08:38:09.439Z,9.30
2023-04-09T08:40:40.487Z,10.30
2023-04-09T08:43:15.861Z,9.70
2023-04-09T08:45:47.643Z,9.60
2023-04-09T08:48:21.448Z,9.40
2023-04-09T08:50:52.868Z,9.50
2023-04-09T08:53:24.263Z,9.60
2023-04-09T08:55:55.350Z,10.10
2023-04-09T08:58:26.304Z,9.60
2023-04-09T09:00:57.329Z,9.90
2023-04-09T09:03:28.659Z,9.20
2023-04-09T09:05:59.777Z,10.60
2023-04-09T09:08:30.819Z,10.60
2023-04-09T09:11:02.237Z,8.70
2023-04-09T09:13:33.219Z,9.40
2023-04-09T09:16:18.172Z,8.30
2023-04-09T09:18:58.824Z,9.10
2023-04-09T09:21:31.848Z,9.40
2023-04-09T09:24:04.801Z,10.30
2023-04-09T09:26:41.417Z,9.70
2023-04-09T09:29:15.750Z,10.00
2023-04-09T09:31:53.710Z,9.20
2023-04-09T09:34:27.876Z,9.70
2023-04-09T09:37:01.833Z,10.60
2023-04-09T09:39:45.716Z,10.70
2023-04-09T09:42:16.719Z,10.50
2023-04-09T09:44:50.067Z,10.70
2023-04-09T09:47:22.223Z,10.00
2023-04-09T09:49:57.012Z,10.10
2023-04-09T09:52:28.725Z,10.10
2023-04-09T09:55:04.406Z,10.30
2023-04-09T09:57:40.709Z,10.40
2023-04-09T10:00:16.887Z,10.10
2023-04-09T10:03:01.717Z,10.00
2023-04-09T10:05:37.010Z,10.70
2023-04-09T10:08:08.780Z,11.90
2023-04-09T10:10:43.281Z,11.20
2023-04-09T10:13:21.797Z,11.00
2023-04-09T10:15:53.357Z,11.30
2023-04-09T10:18:24.658Z,10.90
2023-04-09T10:20:59.604Z,11.60
2023-04-09T10:23:39.062Z,9.80
2023-04-09T10:26:10.593Z,10.00
2023-04-09T10:28:41.829Z,9.20
2023-04-09T10:31:12.995Z,9.50
2023-04-09T10:33:47.875Z,10.20
2023-04-09T10:36:22.515Z,10.80
2023-04-09T10:38:53.969Z,9.80
2023-04-09T10:41:29.237Z,11.30
2023-04-09T10:46:31.527Z,10.60
2023-04-09T10:49:13.773Z,10.90
2023-04-09T10:51:49.461Z,10.60
2023-04-09T10:54:46.066Z,10.50
2023-04-09T10:57:20.132Z,12.00
2023-04-09T10:59:53.079Z,11.60
2023-04-09T11:03:08.129Z,9.90
2023-04-09T11:05:41.088Z,10.90
2023-04-09T11:08:13.318Z,10.00
2023-04-09T11:10:46.313Z,10.50
2023-04-09T11:13:20.082Z,10.80
2023-04-09T11:15:51.440Z,10.60
2023-04-09T11:18:26.394Z,10.90
2023-04-09T11:21:01.190Z,10.10
2023-04-09T11:23:33.128Z,11.40
2023-04-09T11:26:04.296Z,10.90
2023-04-09T11:28:37.455Z,11.10
2023-04-09T11:31:09.300Z,10.30
2023-04-09T11:33:40.311Z,10.10
2023-04-09T11:36:11.772Z,10.80
2023-04-09T11:38:42.911Z,10.10
2023-04-09T11:41:14.330Z,9.40
2023-04-09T11:43:45.555Z,9.60
2023-04-09T11:46:16.728Z,9.70
2023-04-09T11:48:48.420Z,10.20
2023-04-09T11:51:19.746Z,10.40
2023-04-09T11:53:51.404Z,10.60
2023-04-09T11:56:22.824Z,8.90
2023-04-09T11:58:56.017Z,9.70
2023-04-09T12:01:31.886Z,10.20
2023-04-09T12:04:03.859Z,8.90
2023-04-09T12:06:41.877Z,9.60
2023-04-09T12:09:14.333Z,10.00
2023-04-09T12:11:48.268Z,9.30
2023-04-09T12:14:22.694Z,9.50
2023-04-09T12:19:42.757Z,8.10
2023-04-09T12:22:13.699Z,9.20
2023-04-09T12:24:44.654Z,8.60
2023-04-09T12:27:33.844Z,9.20
2023-04-09T12:30:06.072Z,8.40
2023-04-09T12:32:37.107Z,10.30
2023-04-09T12:35:09.130Z,8.60
2023-04-09T12:37:40.173Z,8.80
2023-04-09T12:40:13.965Z,8.50
2023-04-09T12:42:45.650Z,8.80
2023-04-09T12:45:18.280Z,8.50
2023-04-09T12:47:49.445Z,8.40
2023-04-09T12:50:21.685Z,7.90
2023-04-09T12:52:52.684Z,6.80
2023-04-09T12:55:24.159Z,6.80
2023-04-09T12:57:55.069Z,7.80
2023-04-09T13:00:26.136Z,8.00
2023-04-09T13:02:57.153Z,8.30
2023-04-09T13:05:28.901Z,7.90
2023-04-09T13:08:00.222Z,7.10
2023-04-09T13:10:31.849Z,7.10
2023-04-09T13:13:03.121Z,7.10
2023-04-09T13:15:34.162Z,7.10
2023-04-09T13:18:05.574Z,7.50
2023-04-09T13:20:36.702Z,7.50
2023-04-09T13:23:07.657Z,6.00
2023-04-09T13:25:38.596Z,7.50
2023-04-09T13:28:10.096Z,7.20
2023-04-09T13:30:41.084Z,8.30
2023-04-09T13:33:12.145Z,8.30
2023-04-09T13:35:43.154Z,7.60
2023-04-09T13:38:14.102Z,8.20
2023-04-09T13:40:45.301Z,7.80
2023-04-09T13:43:16.301Z,7.50
2023-04-09T13:45:47.321Z,8.40
2023-04-09T13:48:18.421Z,9.20
2023-04-09T13:50:49.702Z,8.00
2023-04-09T13:53:22.070Z,8.30
2023-04-09T13:55:53.041Z,8.50
2023-04-09T13:58:24.106Z,7.70
2023-04-09T14:00:55.579Z,8.80
2023-04-09T14:03:26.648Z,8.50
2023-04-09T14:05:57.786Z,7.20
2023-04-09T14:08:28.996Z,7.30
2023-04-09T14:11:00.388Z,6.80
2023-04-09T14:13:32.046Z,6.90
2023-04-09T14:16:03.127Z,6.30
2023-04-09T14:18:34.073Z,6.70
2023-04-09T14:21:05.726Z,6.20
2023-04-09T14:23:37.295Z,6.20
2023-04-09T14:26:09.053Z,6.60
2023-04-09T14:28:40.073Z,6.90
2023-04-09T14:31:24.509Z,6.90
2023-04-09T14:33:55.599Z,7.20
2023-04-09T14:36:28.008Z,7.50
2023-04-09T14:39:00.291Z,6.70
2023-04-09T14:41:34.399Z,8.50
2023-04-09T14:44:35.505Z,7.30
2023-04-09T14:47:06.778Z,7.40
2023-04-09T14:49:39.576Z,7.30
2023-04-09T14:52:11.114Z,8.10
2023-04-09T14:54:44.736Z,6.90
2023-04-09T14:57:15.821Z,6.90
2023-04-09T14:59:47.742Z,7.50
2023-04-09T15:02:53.595Z,6.50
2023-04-09T15:05:25.769Z,6.90
2023-04-09T15:07:57.444Z,7.40
2023-04-09T15:10:28.416Z,7.20
2023-04-09T15:12:59.343Z,7.30
2023-04-09T15:15:30.752Z,7.50
2023-04-09T15:18:05.998Z,7.70
2023-04-09T15:20:40.574Z,7.60
2023-04-09T15:23:12.230Z,7.20
2023-04-09T15:25:43.167Z,7.40
2023-04-09T15:28:14.599Z,6.80
2023-04-09T15:30:57.333Z,7.30
2023-04-09T15:33:28.418Z,6.20
2023-04-09T15:35:59.792Z,6.90
2023-04-09T15:38:30.978Z,7.10
2023-04-09T15:41:01.960Z,6.90
2023-04-09T15:43:33.002Z,7.50
2023-04-09T15:46:10.784Z,7.40
2023-04-09T15:48:41.861Z,10.90
2023-04-09T15:51:13.815Z,8.90
2023-04-09T15:53:44.812Z,14.60
2023-04-09T15:56:16.409Z,10.60
2023-04-09T15:58:47.548Z,10.80
2023-04-09T16:01:19.186Z,9.90
2023-04-09T16:03:52.492Z,11.30
2023-04-09T16:06:23.578Z,14.00
2023-04-09T16:08:54.893Z,10.50
2023-04-09T16:11:26.375Z,9.90
2023-04-09T16:13:59.165Z,9.00
2023-04-09T16:16:31.447Z,9.40
2023-04-09T16:19:03.082Z,10.50
2023-04-09T16:21:36.105Z,9.20
2023-04-09T16:24:07.530Z,8.40
2023-04-09T16:26:45.829Z,7.70
2023-04-09T16:29:17.948Z,7.40
2023-04-09T16:31:49.020Z,7.80
2023-04-09T16:34:22.930Z,7.70
2023-04-09T16:36:58.257Z,7.20
2023-04-09T16:39:33.472Z,7.30
2023-04-09T16:44:37.552Z,6.30
2023-04-09T16:47:11.176Z,7.40
2023-04-09T16:49:42.487Z,6.90
2023-04-09T16:52:13.784Z,6.80
2023-04-09T16:54:49.702Z,6.80
2023-04-09T16:57:20.769Z,6.80
2023-04-09T16:59:52.147Z,7.10
2023-04-09T17:02:24.885Z,8.20
2023-04-09T17:04:56.776Z,7.80
2023-04-09T17:07:28.787Z,8.30
2023-04-09T17:09:59.721Z,8.70
2023-04-09T17:12:31.416Z,9.60
2023-04-09T17:15:02.506Z,8.60
2023-04-09T17:17:44.719Z,9.90
2023-04-09T17:20:18.597Z,9.70
2023-04-09T17:22:54.819Z,9.50
2023-04-09T17:25:48.778Z,9.70
2023-04-09T17:28:20.234Z,9.20
2023-04-09T17:30:51.208Z,9.20
2023-04-09T17:33:23.597Z,9.30
2023-04-09T17:35:58.521Z,10.40
2023-04-09T17:38:56.766Z,9.40
2023-04-09T17:41:34.102Z,9.20
2023-04-09T17:44:05.206Z,10.10
2023-04-09T17:46:39.511Z,9.70
2023-04-09T17:49:12.305Z,9.80
2023-04-09T17:51:44.108Z,24.30
2023-04-09T17:54:15.317Z,12.80
2023-04-09T17:58:23.028Z,9.50
2023-04-09T18:00:23.587Z,9.40
2023-04-09T18:02:57.753Z,9.90
2023-04-09T18:05:29.918Z,8.40
2023-04-09T18:08:02.317Z,9.30
2023-04-09T18:10:44.730Z,8.80
2023-04-09T18:13:16.085Z,8.80
2023-04-09T18:15:47.233Z,8.30
2023-04-09T18:18:18.324Z,8.00
2023-04-09T18:20:52.465Z,7.90
2023-04-09T18:23:31.602Z,6.90
2023-04-09T18:26:11.049Z,8.00
2023-04-09T18:28:52.078Z,7.40
2023-04-09T18:31:30.712Z,6.70
2023-04-09T18:34:01.898Z,7.70
2023-04-09T18:36:32.956Z,7.30
2023-04-09T18:39:05.120Z,7.30
2023-04-09T18:41:50.053Z,7.20
2023-04-09T18:44:26.956Z,7.00
2023-04-09T18:47:22.308Z,7.50
2023-04-09T18:49:53.252Z,6.90
2023-04-09T18:52:25.492Z,7.10
2023-04-09T18:55:06.825Z,8.00
2023-04-09T18:57:37.819Z,7.30
2023-04-09T19:00:18.736Z,7.30
2023-04-09T19:02:50.080Z,7.20
2023-04-09T19:05:21.690Z,6.70
2023-04-09T19:07:52.800Z,7.50
2023-04-09T19:10:24.270Z,6.80
2023-04-09T19:12:56.178Z,6.60
2023-04-09T19:15:33.548Z,7.10
2023-04-09T19:18:04.820Z,6.50
2023-04-09T19:20:37.720Z,7.10
2023-04-09T19:23:08.830Z,6.10
2023-04-09T19:25:39.848Z,6.00
2023-04-09T19:28:19.958Z,6.50
2023-04-09T19:30:52.637Z,6.30
2023-04-09T19:33:26.482Z,6.00
2023-04-09T19:36:05.460Z,5.70
2023-04-09T19:38:36.565Z,6.10
2023-04-09T19:41:07.978Z,6.60
2023-04-09T19:43:39.458Z,6.00
2023-04-09T19:46:14.394Z,5.90
2023-04-09T19:48:45.695Z,6.30
2023-04-09T19:51:20.315Z,6.40
2023-04-09T19:53:55.518Z,7.00
2023-04-09T19:56:28.611Z,6.20
2023-04-09T19:58:59.734Z,6.40
2023-04-09T20:01:32.764Z,6.90
2023-04-09T20:04:05.490Z,7.50
2023-04-09T20:12:48.065Z,7.40
2023-04-09T20:15:20.296Z,8.00
2023-04-09T20:17:59.644Z,8.00
2023-04-09T20:20:31.813Z,7.10
2023-04-09T20:23:03.482Z,8.20
2023-04-09T20:25:36.878Z,7.90
2023-04-09T20:28:09.983Z,9.10
2023-04-09T20:30:41.413Z,8.80
2023-04-09T20:33:13.781Z,9.20
2023-04-09T20:35:45.042Z,9.40
2023-04-09T20:38:16.126Z,8.90
2023-04-09T20:40:47.222Z,8.90
2023-04-09T20:43:18.525Z,9.30
2023-04-09T20:45:51.371Z,9.20
2023-04-09T20:48:23.001Z,8.90
2023-04-09T20:50:54.040Z,9.40
2023-04-09T20:53:25.430Z,9.60
2023-04-09T20:55:57.333Z,9.00
2023-04-09T20:58:29.818Z,8.70
2023-04-09T21:01:07.849Z,9.70
2023-04-09T21:03:40.349Z,10.60
2023-04-09T21:06:11.747Z,9.50
2023-04-09T21:08:50.358Z,9.80
2023-04-09T21:11:21.919Z,9.60
2023-04-09T21:13:55.080Z,10.30
2023-04-09T21:16:36.005Z,9.70
2023-04-09T21:19:08.190Z,10.50
2023-04-09T21:21:39.938Z,9.40
2023-04-09T21:24:11.034Z,9.50
2023-04-09T21:26:51.642Z,10.20
2023-04-09T21:29:25.894Z,10.80
2023-04-09T21:32:07.477Z,11.30
2023-04-09T21:34:39.716Z,10.20
2023-04-09T21:37:11.357Z,10.70
2023-04-09T21:39:55.971Z,10.40
2023-04-09T21:42:30.191Z,10.20
2023-04-09T21:45:04.773Z,9.90
2023-04-09T21:47:36.240Z,10.70
2023-04-09T21:50:09.505Z,10.50
2023-04-09T21:52:44.160Z,10.70
2023-04-09T21:55:17.879Z,10.20
2023-04-09T21:57:49.440Z,10.00
2023-04-09T22:00:20.756Z,10.90
2023-04-09T22:02:52.839Z,10.70
2023-04-09T22:05:24.694Z,11.30
2023-04-09T22:07:56.072Z,12.30
2023-04-09T22:10:27.671Z,11.00
2023-04-09T22:12:58.618Z,12.60
2023-04-09T22:15:29.615Z,13.60
2023-04-09T22:18:00.626Z,13.80
2023-04-09T22:20:31.515Z,12.50
2023-04-09T22:23:02.621Z,14.30
2023-04-09T22:25:35.182Z,15.30
2023-04-09T22:28:07.558Z,14.10
2023-04-09T22:30:38.591Z,13.90
2023-04-09T22:33:09.674Z,14.90
2023-04-09T22:35:41.364Z,39.50
2023-04-09T22:38:12.433Z,21.50
2023-04-09T22:40:43.462Z,17.00
2023-04-09T22:43:14.615Z,15.80
2023-04-09T22:45:51.094Z,15.90
2023-04-09T22:48:23.182Z,16.50
2023-04-09T22:50:54.383Z,15.60
2023-04-09T22:53:25.480Z,15.70
2023-04-09T22:55:59.506Z,15.90
2023-04-09T22:58:30.500Z,17.30
2023-04-09T23:01:01.512Z,16.30
2023-04-09T23:03:32.949Z,18.10
2023-04-09T23:06:03.891Z,16.70
2023-04-09T23:08:34.904Z,16.90
2023-04-09T23:11:07.371Z,16.90
2023-04-09T23:13:38.259Z,16.60
2023-04-09T23:16:11.553Z,17.30
2023-04-09T23:18:43.218Z,15.90
2023-04-09T23:21:14.310Z,16.00
2023-04-09T23:23:45.901Z,16.70
2023-04-09T23:26:16.833Z,16.80
2023-04-09T23:28:47.724Z,16.80
2023-04-09T23:31:18.790Z,18.40
2023-04-09T23:33:49.705Z,27.90
2023-04-09T23:36:20.655Z,29.80
2023-04-09T23:38:51.609Z,21.30
2023-04-09T23:41:22.775Z,18.60
2023-04-09T23:43:53.761Z,16.40
2023-04-09T23:46:24.913Z,16.00
2023-04-09T23:48:55.854Z,16.00
2023-04-09T23:51:26.826Z,16.10
2023-04-09T23:53:57.740Z,17.20
2023-04-09T23:56:29.480Z,16.20
2023-04-09T23:59:00.377Z,16.90
